createdAt,value
2018-04-10T00:01:38.589Z,18.83
2018-04-10T00:04:05.799Z,17.50
2018-04-10T00:06:32.127Z,18.07
2018-04-10T00:08:58.616Z,19.53
2018-04-10T00:11:25.225Z,19.40
2018-04-10T00:13:51.633Z,19.07
2018-04-10T00:16:18.046Z,18.20
2018-04-10T00:18:44.387Z,18.50
2018-04-10T00:21:10.748Z,17.60
2018-04-10T00:23:37.114Z,17.57
2018-04-10T00:26:03.501Z,16.83
2018-04-10T00:28:29.933Z,16.97
2018-04-10T00:30:56.330Z,18.97
2018-04-10T00:33:22.720Z,19.43
2018-04-10T00:35:49.809Z,17.80
2018-04-10T00:38:16.238Z,17.97
2018-04-10T00:40:42.655Z,19.43
2018-04-10T00:43:09.016Z,18.67
2018-04-10T00:45:35.524Z,18.37
2018-04-10T00:48:01.864Z,18.07
2018-04-10T00:50:28.211Z,18.87
2018-04-10T00:53:13.185Z,18.20
2018-04-10T00:55:39.541Z,18.07
2018-04-10T00:58:05.893Z,19.40
2018-04-10T01:00:33.023Z,20.07
2018-04-10T01:02:59.341Z,18.23
2018-04-10T01:05:25.703Z,17.93
2018-04-10T01:07:52.877Z,18.40
2018-04-10T01:10:19.203Z,16.73
2018-04-10T01:12:45.805Z,17.30
2018-04-10T01:15:12.176Z,18.93
2018-04-10T01:17:38.502Z,17.83
2018-04-10T01:20:04.835Z,16.67
2018-04-10T01:22:31.235Z,16.50
2018-04-10T01:24:57.621Z,16.83
2018-04-10T01:27:23.963Z,19.27
2018-04-10T01:29:50.431Z,18.27
2018-04-10T01:32:16.869Z,17.10
2018-04-10T01:34:44.039Z,17.37
2018-04-10T01:37:10.379Z,17.60
2018-04-10T01:39:37.020Z,18.93
2018-04-10T01:42:03.450Z,17.83
2018-04-10T01:44:30.600Z,19.70
2018-04-10T01:46:56.970Z,19.40
2018-04-10T01:49:23.344Z,18.50
2018-04-10T01:51:50.492Z,18.90
2018-04-10T01:54:17.599Z,19.93
2018-04-10T01:56:44.015Z,20.30
2018-04-10T01:59:10.467Z,20.00
2018-04-10T02:01:36.849Z,19.00
2018-04-10T02:04:03.300Z,17.97
2018-04-10T02:06:29.629Z,18.10
2018-04-10T02:08:56.782Z,17.77
2018-04-10T02:11:47.896Z,18.33
2018-04-10T02:14:14.407Z,18.13
2018-04-10T02:16:40.917Z,17.43
2018-04-10T02:19:07.417Z,18.80
2018-04-10T02:21:33.915Z,18.10
2018-04-10T02:24:00.415Z,18.90
2018-04-10T02:26:26.908Z,18.23
2018-04-10T02:28:53.381Z,19.10
2018-04-10T02:31:19.883Z,20.07
2018-04-10T02:33:46.388Z,18.13
2018-04-10T02:36:12.823Z,18.70
2018-04-10T02:38:39.324Z,19.83
2018-04-10T02:41:05.795Z,18.07
2018-04-10T02:43:32.287Z,19.00
2018-04-10T02:45:58.820Z,19.37
2018-04-10T02:48:25.304Z,18.67
2018-04-10T02:50:51.797Z,19.27
2018-04-10T02:53:18.229Z,19.80
2018-04-10T02:55:44.765Z,18.27
2018-04-10T02:58:11.256Z,19.97
2018-04-10T03:00:37.733Z,19.37
2018-04-10T03:03:04.954Z,18.97
2018-04-10T03:05:31.435Z,18.27
2018-04-10T03:07:58.042Z,18.30
2018-04-10T03:10:24.499Z,18.77
2018-04-10T03:12:51.826Z,18.20
2018-04-10T03:15:18.355Z,18.27
2018-04-10T03:17:44.856Z,19.47
2018-04-10T03:20:11.611Z,18.53
2018-04-10T03:22:38.096Z,18.20
2018-04-10T03:25:04.630Z,17.63
2018-04-10T03:27:31.135Z,17.27
2018-04-10T03:29:57.568Z,17.47
2018-04-10T03:32:24.116Z,17.43
2018-04-10T03:34:50.579Z,16.00
2018-04-10T03:37:17.114Z,17.53
2018-04-10T03:39:43.660Z,17.17
2018-04-10T03:42:10.116Z,17.67
2018-04-10T03:44:37.387Z,16.30
2018-04-10T03:47:03.824Z,17.10
2018-04-10T03:49:30.332Z,16.73
2018-04-10T03:51:56.813Z,17.83
2018-04-10T03:54:23.176Z,16.83
2018-04-10T03:56:49.611Z,17.20
2018-04-10T03:59:15.982Z,16.67
2018-04-10T04:01:42.327Z,17.27
2018-04-10T04:04:08.682Z,17.40
2018-04-10T04:06:35.826Z,18.17
2018-04-10T04:09:02.463Z,16.20
2018-04-10T04:11:28.819Z,17.17
2018-04-10T04:13:55.226Z,18.10
2018-04-10T04:16:39.915Z,15.93
2018-04-10T04:19:24.687Z,16.10
2018-04-10T04:22:16.540Z,17.43
2018-04-10T04:24:42.923Z,18.00
2018-04-10T04:27:09.992Z,17.10
2018-04-10T04:29:36.378Z,18.00
2018-04-10T04:32:03.755Z,17.33
2018-04-10T04:34:30.841Z,17.50
2018-04-10T04:36:58.055Z,16.20
2018-04-10T04:39:25.140Z,33.70
2018-04-10T04:41:51.668Z,38.00
2018-04-10T04:44:18.007Z,39.20
2018-04-10T04:46:44.343Z,22.13
2018-04-10T04:49:10.734Z,25.03
2018-04-10T04:51:37.123Z,25.40
2018-04-10T04:54:03.563Z,26.37
2018-04-10T04:56:29.911Z,17.90
2018-04-10T04:58:56.301Z,16.40
2018-04-10T05:01:22.656Z,15.90
2018-04-10T05:03:49.008Z,15.93
2018-04-10T05:06:15.447Z,15.73
2018-04-10T05:08:42.613Z,14.63
2018-04-10T05:11:09.059Z,31.53
2018-04-10T05:13:35.455Z,38.20
2018-04-10T05:16:02.535Z,25.80
2018-04-10T05:18:28.997Z,17.83
2018-04-10T05:20:55.347Z,16.87
2018-04-10T05:23:21.692Z,14.90
2018-04-10T05:25:48.816Z,15.20
2018-04-10T05:28:15.253Z,14.77
2018-04-10T05:30:41.664Z,15.37
2018-04-10T05:33:08.017Z,16.00
2018-04-10T05:35:34.505Z,14.40
2018-04-10T05:38:00.915Z,15.13
2018-04-10T05:40:28.001Z,15.40
2018-04-10T05:42:55.148Z,14.50
2018-04-10T05:45:21.554Z,14.03
2018-04-10T05:47:48.644Z,13.87
2018-04-10T05:50:15.017Z,13.90
2018-04-10T05:52:41.423Z,13.83
2018-04-10T05:55:07.856Z,13.47
2018-04-10T05:57:34.272Z,14.30
2018-04-10T06:00:00.754Z,44.10
2018-04-10T06:02:27.884Z,42.40
2018-04-10T06:04:54.217Z,18.57
2018-04-10T06:07:20.647Z,14.67
2018-04-10T06:09:47.101Z,13.90
2018-04-10T06:12:14.196Z,13.27
2018-04-10T06:14:40.583Z,12.97
2018-04-10T06:17:07.092Z,13.60
2018-04-10T06:19:33.524Z,13.40
2018-04-10T06:21:59.877Z,14.07
2018-04-10T06:24:26.988Z,14.60
2018-04-10T06:26:53.368Z,14.60
2018-04-10T06:29:19.781Z,14.60
2018-04-10T06:31:46.192Z,15.97
2018-04-10T06:34:12.549Z,14.43
2018-04-10T06:36:38.891Z,15.07
2018-04-10T06:39:05.315Z,16.53
2018-04-10T06:41:32.481Z,15.13
2018-04-10T06:43:59.175Z,15.50
2018-04-10T06:46:25.668Z,16.80
2018-04-10T06:48:52.058Z,16.37
2018-04-10T06:51:18.395Z,15.53
2018-04-10T06:53:44.831Z,15.87
2018-04-10T06:56:11.260Z,17.27
2018-04-10T06:58:37.669Z,15.90
2018-04-10T07:01:04.101Z,15.93
2018-04-10T07:03:30.453Z,37.77
2018-04-10T07:05:57.576Z,42.50
2018-04-10T07:08:23.970Z,25.83
2018-04-10T07:10:50.477Z,18.43
2018-04-10T07:13:17.657Z,31.27
2018-04-10T07:15:44.733Z,40.83
2018-04-10T07:18:11.099Z,47.47
2018-04-10T07:20:37.510Z,28.93
2018-04-10T07:23:03.869Z,27.93
2018-04-10T07:25:31.003Z,28.03
2018-04-10T07:27:57.390Z,16.10
2018-04-10T07:30:23.747Z,18.60
2018-04-10T07:32:50.172Z,13.80
2018-04-10T07:35:16.508Z,13.00
2018-04-10T07:37:42.925Z,20.63
2018-04-10T07:40:09.304Z,12.10
2018-04-10T07:42:35.723Z,10.80
2018-04-10T07:45:02.220Z,10.30
2018-04-10T07:47:28.607Z,10.60
2018-04-10T07:49:55.712Z,11.53
2018-04-10T07:52:22.075Z,11.33
2018-04-10T07:54:49.210Z,12.10
2018-04-10T07:57:15.608Z,10.23
2018-04-10T07:59:41.967Z,10.57
2018-04-10T08:02:08.394Z,10.00
2018-04-10T08:04:34.759Z,10.20
2018-04-10T08:07:02.280Z,10.57
2018-04-10T08:09:28.846Z,11.40
2018-04-10T08:11:55.960Z,10.53
2018-04-10T08:14:22.404Z,10.07
2018-04-10T08:16:48.853Z,10.60
2018-04-10T08:19:15.359Z,8.63
2018-04-10T08:21:42.026Z,9.03
2018-04-10T08:24:08.420Z,8.57
2018-04-10T08:26:34.818Z,9.50
2018-04-10T08:29:02.019Z,8.30
2018-04-10T08:31:28.496Z,8.47
2018-04-10T08:33:54.938Z,8.33
2018-04-10T08:36:21.355Z,8.40
2018-04-10T08:38:48.577Z,7.77
2018-04-10T08:41:15.035Z,7.57
2018-04-10T08:43:41.392Z,6.90
2018-04-10T08:46:07.907Z,7.93
2018-04-10T08:48:35.000Z,14.63
2018-04-10T08:51:01.418Z,12.00
2018-04-10T08:53:27.774Z,8.30
2018-04-10T08:55:54.175Z,7.27
2018-04-10T08:58:21.395Z,7.57
2018-04-10T09:00:48.598Z,7.53
2018-04-10T09:03:14.974Z,5.57
2018-04-10T09:05:41.406Z,5.10
2018-04-10T09:08:07.864Z,4.37
2018-04-10T09:10:34.305Z,5.03
2018-04-10T09:13:00.804Z,4.90
2018-04-10T09:15:27.275Z,4.37
2018-04-10T09:17:53.693Z,5.10
2018-04-10T09:20:20.817Z,4.40
2018-04-10T09:22:47.276Z,8.13
2018-04-10T09:25:14.530Z,6.20
2018-04-10T09:27:40.978Z,4.30
2018-04-10T09:30:07.435Z,4.00
2018-04-10T09:32:34.265Z,4.77
2018-04-10T09:35:00.816Z,5.00
2018-04-10T09:37:27.301Z,4.40
2018-04-10T09:39:53.804Z,4.60
2018-04-10T09:42:20.250Z,4.53
2018-04-10T09:44:47.457Z,4.80
2018-04-10T09:47:13.967Z,4.40
2018-04-10T09:49:40.409Z,5.50
2018-04-10T09:52:06.859Z,4.80
2018-04-10T09:54:33.359Z,4.80
2018-04-10T09:57:00.227Z,5.60
2018-04-10T09:59:28.720Z,5.13
2018-04-10T10:01:55.265Z,5.20
2018-04-10T10:04:21.679Z,6.33
2018-04-10T10:06:48.256Z,7.30
2018-04-10T10:09:14.818Z,12.83
2018-04-10T10:11:41.538Z,6.07
2018-04-10T10:14:08.876Z,5.70
2018-04-10T10:16:35.343Z,6.23
2018-04-10T10:19:01.933Z,5.60
2018-04-10T10:21:28.448Z,6.00
2018-04-10T10:23:54.988Z,6.60
2018-04-10T10:26:21.467Z,6.80
2018-04-10T10:28:48.745Z,5.87
2018-04-10T10:31:15.255Z,6.10
2018-04-10T10:33:41.701Z,15.10
2018-04-10T10:36:08.232Z,7.73
2018-04-10T10:38:36.514Z,7.30
2018-04-10T10:41:03.671Z,6.00
2018-04-10T10:43:30.279Z,5.87
2018-04-10T10:45:56.777Z,7.07
2018-04-10T10:48:23.250Z,5.80
2018-04-10T10:50:49.762Z,7.23
2018-04-10T10:53:16.588Z,6.57
2018-04-10T10:55:43.155Z,7.10
2018-04-10T10:58:09.603Z,6.90
2018-04-10T11:00:36.165Z,6.13
2018-04-10T11:03:02.765Z,21.33
2018-04-10T11:05:29.226Z,7.67
2018-04-10T11:07:56.542Z,6.50
2018-04-10T11:10:22.879Z,7.47
2018-04-10T11:12:49.450Z,6.47
2018-04-10T11:15:15.883Z,7.37
2018-04-10T11:17:42.952Z,6.57
2018-04-10T11:20:09.321Z,6.80
2018-04-10T11:22:35.675Z,6.13
2018-04-10T11:25:02.805Z,6.77
2018-04-10T11:27:29.139Z,7.03
2018-04-10T11:29:55.595Z,7.20
2018-04-10T11:32:22.128Z,6.83
2018-04-10T11:34:49.388Z,5.10
2018-04-10T11:37:16.820Z,5.47
2018-04-10T11:39:44.053Z,5.23
2018-04-10T11:42:10.522Z,4.70
2018-04-10T11:44:37.857Z,5.43
2018-04-10T11:47:04.321Z,5.43
2018-04-10T11:49:30.846Z,5.35
2018-04-10T11:51:57.349Z,5.20
2018-04-10T11:54:23.948Z,5.40
2018-04-10T11:56:50.439Z,6.30
2018-04-10T11:59:17.880Z,5.87
2018-04-10T12:01:44.334Z,6.50
2018-04-10T12:04:11.600Z,5.70
2018-04-10T12:06:39.285Z,6.50
2018-04-10T12:09:06.745Z,6.90
2018-04-10T12:11:34.092Z,6.33
2018-04-10T12:14:00.888Z,6.50
2018-04-10T12:16:27.340Z,6.47
2018-04-10T12:18:55.613Z,6.70
2018-04-10T12:21:22.862Z,6.80
2018-04-10T12:23:50.299Z,5.90
2018-04-10T12:26:17.576Z,5.33
2018-04-10T12:28:44.152Z,5.20
2018-04-10T12:31:10.637Z,5.10
2018-04-10T12:33:38.328Z,4.20
2018-04-10T12:36:04.995Z,4.90
2018-04-10T12:38:31.550Z,4.80
2018-04-10T12:40:58.813Z,4.33
2018-04-10T12:43:25.374Z,4.57
2018-04-10T12:45:51.847Z,4.60
2018-04-10T12:48:18.312Z,4.20
2018-04-10T12:50:44.964Z,3.83
2018-04-10T12:53:12.312Z,4.40
2018-04-10T12:55:38.875Z,4.13
2018-04-10T12:58:06.195Z,4.53
2018-04-10T13:00:32.728Z,4.50
2018-04-10T13:02:59.208Z,4.60
2018-04-10T13:05:25.717Z,4.13
2018-04-10T13:07:52.928Z,3.80
2018-04-10T13:10:19.384Z,3.57
2018-04-10T13:12:45.820Z,4.10
2018-04-10T13:15:12.312Z,3.90
2018-04-10T13:17:38.733Z,4.83
2018-04-10T13:20:05.217Z,4.00
2018-04-10T13:22:31.651Z,3.50
2018-04-10T13:24:58.080Z,3.77
2018-04-10T13:27:24.559Z,4.00
2018-04-10T13:29:50.959Z,3.70
2018-04-10T13:32:17.353Z,3.83
2018-04-10T13:34:43.762Z,3.67
2018-04-10T13:37:10.263Z,5.00
2018-04-10T13:39:36.909Z,4.03
2018-04-10T13:42:03.958Z,4.50
2018-04-10T13:44:30.480Z,4.37
2018-04-10T13:46:57.024Z,5.10
2018-04-10T13:49:24.212Z,5.13
2018-04-10T13:51:51.474Z,5.20
2018-04-10T13:54:18.902Z,4.53
2018-04-10T13:56:45.360Z,5.17
2018-04-10T13:59:11.983Z,4.90
2018-04-10T14:01:38.561Z,4.47
2018-04-10T14:04:05.147Z,4.90
2018-04-10T14:06:34.064Z,4.80
2018-04-10T14:09:01.128Z,5.67
2018-04-10T14:11:27.744Z,5.70
2018-04-10T14:13:54.284Z,5.60
2018-04-10T14:16:21.279Z,5.47
2018-04-10T14:18:47.928Z,6.43
2018-04-10T14:21:14.458Z,7.00
2018-04-10T14:23:41.084Z,7.90
2018-04-10T14:26:07.646Z,8.13
2018-04-10T14:28:34.338Z,8.00
2018-04-10T14:31:00.865Z,7.50
2018-04-10T14:33:27.510Z,6.80
2018-04-10T14:35:54.220Z,7.13
2018-04-10T14:38:20.935Z,7.37
2018-04-10T14:40:47.548Z,7.20
2018-04-10T14:43:14.294Z,7.10
2018-04-10T14:45:41.158Z,7.00
2018-04-10T14:48:07.981Z,7.70
2018-04-10T14:50:34.702Z,8.03
2018-04-10T14:53:01.364Z,7.77
2018-04-10T14:55:28.184Z,8.13
2018-04-10T14:57:55.703Z,6.80
2018-04-10T15:00:23.279Z,7.17
2018-04-10T15:02:49.983Z,6.67
2018-04-10T15:05:17.542Z,7.17
2018-04-10T15:07:44.500Z,6.37
2018-04-10T15:10:11.230Z,7.13
2018-04-10T15:12:38.044Z,6.87
2018-04-10T15:15:05.575Z,7.97
2018-04-10T15:17:32.529Z,8.00
2018-04-10T15:19:59.281Z,7.40
2018-04-10T15:22:26.736Z,7.30
2018-04-10T15:24:54.397Z,7.17
2018-04-10T15:27:21.906Z,7.23
2018-04-10T15:29:48.787Z,7.60
2018-04-10T15:32:16.401Z,7.73
2018-04-10T15:34:43.204Z,8.03
2018-04-10T15:37:10.753Z,8.30
2018-04-10T15:39:37.646Z,9.53
2018-04-10T15:42:04.488Z,9.90
2018-04-10T15:44:31.349Z,8.20
2018-04-10T15:46:58.252Z,12.03
2018-04-10T15:49:25.672Z,7.87
2018-04-10T15:51:52.502Z,13.57
2018-04-10T15:54:19.549Z,7.77
2018-04-10T15:56:46.316Z,7.90
2018-04-10T15:59:13.136Z,7.03
2018-04-10T16:01:39.881Z,7.40
2018-04-10T16:04:06.641Z,7.10
2018-04-10T16:06:33.502Z,6.80
2018-04-10T16:09:00.293Z,7.47
2018-04-10T16:11:27.694Z,8.03
2018-04-10T16:13:54.384Z,8.10
2018-04-10T16:16:21.088Z,7.60
2018-04-10T16:18:47.893Z,8.70
2018-04-10T16:21:15.317Z,8.30
2018-04-10T16:23:42.065Z,9.97
2018-04-10T16:26:08.819Z,9.13
2018-04-10T16:28:36.469Z,9.10
2018-04-10T16:31:03.379Z,8.73
2018-04-10T16:33:30.077Z,9.70
2018-04-10T16:35:56.827Z,8.10
2018-04-10T16:38:24.428Z,8.53
2018-04-10T16:40:51.190Z,8.10
2018-04-10T16:43:18.087Z,9.00
2018-04-10T16:45:44.848Z,8.67
2018-04-10T16:48:11.555Z,9.10
2018-04-10T16:50:39.040Z,9.20
2018-04-10T16:53:05.771Z,11.17
2018-04-10T16:55:33.445Z,9.00
2018-04-10T16:58:00.185Z,10.90
2018-04-10T17:00:26.926Z,11.27
2018-04-10T17:02:53.718Z,11.90
2018-04-10T17:05:21.227Z,11.80
2018-04-10T17:07:48.620Z,10.87
2018-04-10T17:10:15.422Z,10.03
2018-04-10T17:12:42.810Z,38.03
2018-04-10T17:15:09.618Z,50.83
2018-04-10T17:17:36.834Z,36.80
2018-04-10T17:20:03.596Z,15.80
2018-04-10T17:22:30.600Z,11.43
2018-04-10T17:24:58.228Z,10.77
2018-04-10T17:27:25.142Z,11.50
2018-04-10T17:29:51.938Z,11.30
2018-04-10T17:32:18.691Z,12.93
2018-04-10T17:34:46.759Z,11.50
2018-04-10T17:37:13.627Z,12.77
2018-04-10T17:39:40.415Z,13.80
2018-04-10T17:42:08.122Z,13.70
2018-04-10T17:44:35.921Z,14.00
2018-04-10T17:47:02.686Z,12.90
2018-04-10T17:49:29.404Z,12.13
2018-04-10T17:51:56.148Z,12.70
2018-04-10T17:54:22.837Z,47.60
2018-04-10T17:56:50.254Z,17.40
2018-04-10T17:59:17.000Z,14.73
2018-04-10T18:01:43.706Z,15.47
2018-04-10T18:04:10.527Z,12.43
2018-04-10T18:06:38.009Z,14.57
2018-04-10T18:09:04.827Z,14.07
2018-04-10T18:11:33.102Z,13.60
2018-04-10T18:13:59.982Z,15.13
2018-04-10T18:16:26.714Z,14.27
2018-04-10T18:18:54.697Z,14.80
2018-04-10T18:21:21.596Z,13.43
2018-04-10T18:23:48.367Z,13.60
2018-04-10T18:26:15.179Z,13.83
2018-04-10T18:28:42.114Z,15.40
2018-04-10T18:31:09.005Z,13.40
2018-04-10T18:33:36.548Z,16.17
2018-04-10T18:36:03.597Z,16.47
2018-04-10T18:38:30.564Z,18.50
2018-04-10T18:40:58.310Z,18.77
2018-04-10T18:43:25.445Z,18.87
2018-04-10T18:45:52.676Z,21.60
2018-04-10T18:48:19.480Z,22.93
2018-04-10T18:50:46.355Z,23.00
2018-04-10T18:53:14.339Z,23.70
2018-04-10T18:55:42.576Z,21.80
2018-04-10T18:58:09.747Z,23.43
2018-04-10T19:00:36.554Z,22.17
2018-04-10T19:03:03.574Z,22.07
2018-04-10T19:05:30.710Z,22.37
2018-04-10T19:07:58.894Z,24.43
2018-04-10T19:10:27.615Z,22.90
2018-04-10T19:12:56.502Z,23.40
2018-04-10T19:15:24.450Z,24.60
2018-04-10T19:17:51.949Z,25.53
2018-04-10T19:20:19.830Z,25.80
2018-04-10T19:22:47.499Z,23.13
2018-04-10T19:25:15.083Z,23.67
2018-04-10T19:27:42.436Z,26.43
2018-04-10T19:30:09.336Z,37.87
2018-04-10T19:32:36.039Z,71.37
2018-04-10T19:35:02.894Z,93.30
2018-04-10T19:37:29.607Z,97.90
2018-04-10T19:39:56.312Z,31.90
2018-04-10T19:42:23.856Z,26.90
2018-04-10T19:44:50.566Z,25.20
2018-04-10T19:47:17.261Z,26.73
2018-04-10T19:49:44.750Z,24.90
2018-04-10T19:52:11.495Z,22.63
2018-04-10T19:54:38.212Z,22.70
2018-04-10T19:57:05.043Z,20.33
2018-04-10T19:59:31.725Z,22.00
2018-04-10T20:01:58.983Z,22.50
2018-04-10T20:04:25.846Z,21.27
2018-04-10T20:06:52.486Z,22.33
2018-04-10T20:09:19.147Z,24.03
2018-04-10T20:11:45.957Z,24.80
2018-04-10T20:14:12.750Z,24.13
2018-04-10T20:16:39.400Z,22.73
2018-04-10T20:19:06.170Z,33.03
2018-04-10T20:21:33.178Z,67.77
2018-04-10T20:23:59.875Z,30.10
2018-04-10T20:26:26.621Z,21.43
2018-04-10T20:28:53.307Z,19.73
2018-04-10T20:31:20.008Z,19.30
2018-04-10T20:33:47.436Z,18.10
2018-04-10T20:36:14.114Z,19.10
2018-04-10T20:38:40.801Z,21.00
2018-04-10T20:41:07.624Z,20.40
2018-04-10T20:43:34.321Z,20.40
2018-04-10T20:46:01.810Z,20.13
2018-04-10T20:48:29.600Z,18.47
2018-04-10T20:50:56.330Z,17.90
2018-04-10T20:53:22.960Z,17.37
2018-04-10T20:55:49.636Z,18.17
2018-04-10T20:58:16.332Z,17.87
2018-04-10T21:00:43.102Z,15.20
2018-04-10T21:03:09.756Z,14.90
2018-04-10T21:05:36.437Z,15.47
2018-04-10T21:08:03.161Z,16.20
2018-04-10T21:10:30.536Z,15.90
2018-04-10T21:12:57.200Z,15.93
2018-04-10T21:15:23.903Z,17.73
2018-04-10T21:17:50.579Z,17.10
2018-04-10T21:20:17.282Z,17.10
2018-04-10T21:22:43.963Z,17.13
2018-04-10T21:25:11.564Z,17.20
2018-04-10T21:27:38.916Z,17.90
2018-04-10T21:30:06.312Z,17.73
2018-04-10T21:32:32.872Z,17.60
2018-04-10T21:35:00.233Z,16.93
2018-04-10T21:37:26.879Z,17.83
2018-04-10T21:39:53.367Z,16.33
2018-04-10T21:42:19.804Z,17.60
2018-04-10T21:44:46.227Z,16.70
2018-04-10T21:47:12.616Z,17.87
2018-04-10T21:49:39.054Z,17.90
2018-04-10T21:52:06.199Z,18.27
2018-04-10T21:54:32.600Z,16.83
2018-04-10T21:56:58.987Z,18.90
2018-04-10T21:59:26.067Z,17.43
2018-04-10T22:01:53.239Z,19.20
2018-04-10T22:04:19.629Z,21.07
2018-04-10T22:06:46.011Z,20.10
2018-04-10T22:09:12.451Z,21.43
2018-04-10T22:11:38.805Z,21.93
2018-04-10T22:14:05.243Z,20.43
2018-04-10T22:16:31.624Z,20.67
2018-04-10T22:18:58.046Z,21.03
2018-04-10T22:21:24.431Z,19.30
2018-04-10T22:23:51.578Z,19.90
2018-04-10T22:26:18.059Z,21.10
2018-04-10T22:28:44.443Z,21.67
2018-04-10T22:31:10.943Z,22.03
2018-04-10T22:33:37.400Z,22.33
2018-04-10T22:36:03.756Z,21.93
2018-04-10T22:38:30.264Z,21.23
2018-04-10T22:40:56.674Z,19.87
2018-04-10T22:43:23.019Z,21.23
2018-04-10T22:45:49.467Z,21.90
2018-04-10T22:48:15.850Z,23.37
2018-04-10T22:50:42.319Z,21.60
2018-04-10T22:53:08.657Z,21.27
2018-04-10T22:55:35.045Z,21.10
2018-04-10T22:58:01.428Z,21.00
2018-04-10T23:13:54.668Z,18.70
2018-04-10T23:16:24.528Z,19.77
2018-04-10T23:18:53.585Z,18.53
2018-04-10T23:21:23.432Z,18.40
2018-04-10T23:23:52.473Z,18.70
2018-04-10T23:26:21.549Z,18.13
2018-04-10T23:28:50.636Z,20.03
2018-04-10T23:31:19.709Z,20.00
2018-04-10T23:33:48.783Z,18.17
2018-04-10T23:36:18.637Z,19.40
2018-04-10T23:38:47.701Z,19.40
2018-04-10T23:41:17.549Z,17.90
2018-04-10T23:43:46.625Z,18.93
2018-04-10T23:46:15.679Z,16.93
2018-04-10T23:48:44.767Z,18.33
2018-04-10T23:51:15.320Z,17.20
2018-04-10T23:53:45.174Z,18.00
2018-04-10T23:56:14.221Z,17.10
2018-04-10T23:58:44.066Z,17.03
